createdAt,value
2019-06-20T00:02:20.866Z,18.90
2019-06-20T00:04:49.787Z,18.80
2019-06-20T00:07:18.562Z,18.80
2019-06-20T00:09:47.183Z,18.70
2019-06-20T00:12:15.918Z,18.70
2019-06-20T00:14:45.476Z,18.60
2019-06-20T00:17:14.068Z,18.50
2019-06-20T00:19:44.043Z,18.40
2019-06-20T00:22:12.610Z,18.30
2019-06-20T00:24:41.196Z,18.30
2019-06-20T00:27:09.822Z,18.30
2019-06-20T00:29:38.594Z,18.30
2019-06-20T00:32:07.193Z,18.20
2019-06-20T00:34:35.817Z,18.20
2019-06-20T00:37:04.477Z,18.20
2019-06-20T00:39:33.075Z,18.20
2019-06-20T00:42:01.677Z,18.10
2019-06-20T00:44:30.294Z,18.10
2019-06-20T00:46:59.021Z,18.10
2019-06-20T00:49:27.651Z,18.20
2019-06-20T00:51:56.347Z,18.20
2019-06-20T00:54:24.980Z,18.30
2019-06-20T00:56:53.605Z,18.30
2019-06-20T00:59:22.866Z,18.30
2019-06-20T01:01:51.472Z,18.30
2019-06-20T01:04:20.049Z,18.30
2019-06-20T01:06:48.669Z,18.30
2019-06-20T01:09:17.485Z,18.30
2019-06-20T01:11:46.581Z,18.30
2019-06-20T01:14:15.270Z,18.40
2019-06-20T01:16:44.008Z,18.40
2019-06-20T01:19:12.662Z,18.40
2019-06-20T01:21:41.284Z,18.40
2019-06-20T01:24:09.866Z,18.40
2019-06-20T01:26:38.843Z,18.40
2019-06-20T01:29:07.648Z,18.40
2019-06-20T01:31:36.700Z,18.40
2019-06-20T01:34:05.410Z,18.40
2019-06-20T01:36:34.025Z,18.40
2019-06-20T01:39:03.007Z,18.40
2019-06-20T01:41:31.769Z,18.40
2019-06-20T01:44:00.701Z,18.40
2019-06-20T01:46:29.270Z,18.30
2019-06-20T01:48:57.907Z,18.30
2019-06-20T01:51:26.665Z,18.30
2019-06-20T01:53:55.890Z,18.30
2019-06-20T01:56:24.473Z,18.20
2019-06-20T01:58:53.193Z,18.20
2019-06-20T02:01:22.246Z,18.20
2019-06-20T02:03:50.952Z,18.20
2019-06-20T02:06:19.827Z,18.20
2019-06-20T02:08:48.722Z,18.10
2019-06-20T02:11:17.614Z,18.10
2019-06-20T02:13:46.207Z,18.10
2019-06-20T02:16:14.901Z,18.00
2019-06-20T02:18:43.497Z,18.00
2019-06-20T02:21:12.634Z,18.00
2019-06-20T02:23:41.266Z,18.00
2019-06-20T02:26:10.196Z,17.90
2019-06-20T02:28:38.825Z,17.90
2019-06-20T02:31:07.545Z,17.90
2019-06-20T02:33:36.641Z,17.90
2019-06-20T02:36:05.359Z,18.00
2019-06-20T02:38:34.433Z,17.90
2019-06-20T02:41:03.062Z,17.90
2019-06-20T02:43:31.943Z,17.90
2019-06-20T02:46:00.682Z,17.90
2019-06-20T02:48:29.299Z,17.90
2019-06-20T02:50:58.631Z,17.90
2019-06-20T02:53:27.329Z,17.90
2019-06-20T02:55:56.813Z,17.90
2019-06-20T02:58:25.413Z,17.90
2019-06-20T03:01:00.288Z,17.90
2019-06-20T03:03:29.931Z,17.90
2019-06-20T03:05:59.270Z,17.90
2019-06-20T03:08:28.685Z,17.90
2019-06-20T03:10:57.341Z,17.90
2019-06-20T03:13:26.704Z,17.80
2019-06-20T03:15:55.395Z,17.80
2019-06-20T03:18:24.486Z,17.80
2019-06-20T03:20:53.393Z,17.80
2019-06-20T03:23:22.742Z,17.80
2019-06-20T03:25:51.596Z,17.80
2019-06-20T03:28:20.271Z,17.80
2019-06-20T03:30:49.314Z,17.80
2019-06-20T03:33:18.006Z,17.80
2019-06-20T03:35:46.936Z,17.80
2019-06-20T03:38:15.565Z,17.80
2019-06-20T03:40:44.257Z,17.80
2019-06-20T03:43:12.840Z,17.90
2019-06-20T03:45:41.637Z,17.90
2019-06-20T03:48:10.406Z,18.20
2019-06-20T03:50:39.132Z,18.30
2019-06-20T03:53:07.754Z,18.30
2019-06-20T03:55:36.528Z,18.30
2019-06-20T03:58:06.183Z,18.20
2019-06-20T04:00:35.912Z,18.10
2019-06-20T04:03:05.469Z,18.00
2019-06-20T04:05:34.881Z,18.00
2019-06-20T04:08:03.759Z,17.90
2019-06-20T04:10:32.479Z,18.00
2019-06-20T04:13:01.135Z,18.00
2019-06-20T04:15:29.707Z,18.10
2019-06-20T04:17:58.290Z,18.20
2019-06-20T04:20:26.907Z,18.30
2019-06-20T04:22:56.221Z,18.70
2019-06-20T04:25:25.100Z,19.20
2019-06-20T04:27:53.737Z,19.60
2019-06-20T04:30:22.533Z,19.70
2019-06-20T04:32:51.253Z,19.80
2019-06-20T04:35:20.225Z,19.80
2019-06-20T04:37:49.015Z,19.90
2019-06-20T04:40:18.604Z,20.10
2019-06-20T04:42:47.419Z,20.30
2019-06-20T04:45:34.157Z,20.40
2019-06-20T04:47:51.665Z,20.70
2019-06-20T04:50:20.362Z,21.00
2019-06-20T04:52:48.954Z,21.00
2019-06-20T04:55:17.583Z,21.10
2019-06-20T04:57:46.245Z,21.00
2019-06-20T05:00:15.106Z,20.90
2019-06-20T05:02:43.795Z,20.90
2019-06-20T05:05:14.053Z,20.90
2019-06-20T05:07:42.706Z,20.90
2019-06-20T05:10:11.809Z,20.70
2019-06-20T05:12:40.769Z,20.60
2019-06-20T05:15:09.463Z,20.40
2019-06-20T05:17:38.749Z,20.50
2019-06-20T05:20:07.733Z,20.60
2019-06-20T05:22:36.371Z,20.50
2019-06-20T05:25:06.640Z,20.80
2019-06-20T05:27:35.283Z,21.20
2019-06-20T05:30:07.943Z,21.10
2019-06-20T05:32:36.862Z,21.40
2019-06-20T05:35:06.956Z,21.40
2019-06-20T05:37:35.828Z,21.30
2019-06-20T05:40:06.597Z,21.10
2019-06-20T05:42:35.231Z,21.00
2019-06-20T05:45:06.455Z,21.20
2019-06-20T05:47:35.434Z,21.70
2019-06-20T05:50:08.868Z,21.90
2019-06-20T05:52:37.635Z,21.80
2019-06-20T05:55:07.165Z,21.60
2019-06-20T05:57:35.798Z,21.20
2019-06-20T06:00:08.391Z,20.60
2019-06-20T06:02:37.282Z,20.30
2019-06-20T06:05:06.619Z,20.10
2019-06-20T06:07:35.391Z,19.90
2019-06-20T06:10:07.086Z,19.90
2019-06-20T06:12:36.367Z,19.80
2019-06-20T06:15:08.519Z,19.70
2019-06-20T06:17:37.320Z,19.40
2019-06-20T06:20:07.489Z,19.40
2019-06-20T06:22:36.613Z,19.40
2019-06-20T06:25:09.333Z,19.30
2019-06-20T06:27:37.981Z,19.20
2019-06-20T06:30:07.816Z,19.10
2019-06-20T06:32:39.914Z,19.00
2019-06-20T06:35:09.770Z,19.00
2019-06-20T06:37:38.375Z,19.00
2019-06-20T06:40:11.466Z,18.90
2019-06-20T06:42:40.391Z,18.90
2019-06-20T06:45:09.858Z,18.80
2019-06-20T06:47:38.521Z,18.70
2019-06-20T06:50:07.985Z,18.70
2019-06-20T06:52:36.744Z,18.70
2019-06-20T06:55:06.018Z,18.60
2019-06-20T06:57:34.610Z,18.70
2019-06-20T07:00:04.750Z,18.80
2019-06-20T07:02:33.646Z,18.80
2019-06-20T07:05:03.035Z,18.80
2019-06-20T07:07:31.640Z,18.80
2019-06-20T07:10:00.317Z,18.70
2019-06-20T07:12:28.908Z,18.80
2019-06-20T07:14:57.838Z,18.80
2019-06-20T07:17:26.465Z,18.80
2019-06-20T07:19:55.056Z,18.80
2019-06-20T07:22:23.790Z,18.80
2019-06-20T07:24:52.393Z,18.80
2019-06-20T07:27:21.386Z,18.80
2019-06-20T07:29:50.046Z,18.70
2019-06-20T07:32:18.687Z,18.70
2019-06-20T07:34:47.598Z,18.60
2019-06-20T07:37:16.457Z,18.50
2019-06-20T07:39:45.108Z,18.50
2019-06-20T07:42:13.686Z,18.40
2019-06-20T07:44:42.284Z,18.40
2019-06-20T07:47:17.633Z,18.40
2019-06-20T07:49:41.193Z,18.50
2019-06-20T07:52:09.825Z,18.60
2019-06-20T07:54:38.444Z,18.80
2019-06-20T07:57:08.191Z,18.80
2019-06-20T07:59:36.805Z,18.90
2019-06-20T08:02:05.587Z,18.90
2019-06-20T08:04:34.225Z,18.90
2019-06-20T08:07:03.220Z,18.90
2019-06-20T08:09:44.348Z,18.90
2019-06-20T08:12:02.350Z,18.90
2019-06-20T08:14:31.014Z,19.00
2019-06-20T08:16:59.857Z,19.10
2019-06-20T08:19:28.908Z,19.30
2019-06-20T08:21:57.774Z,19.30
2019-06-20T08:24:26.665Z,19.40
2019-06-20T08:26:56.783Z,19.30
2019-06-20T08:29:26.126Z,19.20
2019-06-20T08:31:56.152Z,19.20
2019-06-20T08:34:24.970Z,19.20
2019-06-20T08:36:53.583Z,19.20
2019-06-20T08:39:22.225Z,19.30
2019-06-20T08:41:50.836Z,19.40
2019-06-20T08:44:19.942Z,19.40
2019-06-20T08:46:48.540Z,19.50
2019-06-20T08:49:17.413Z,19.40
2019-06-20T08:51:46.058Z,19.50
2019-06-20T08:54:14.681Z,19.50
2019-06-20T08:56:44.810Z,19.60
2019-06-20T08:59:24.016Z,19.60
2019-06-20T09:01:43.923Z,19.60
2019-06-20T09:04:12.956Z,19.60
2019-06-20T09:06:41.918Z,19.70
2019-06-20T09:09:10.626Z,19.70
2019-06-20T09:11:39.258Z,19.70
2019-06-20T09:14:08.262Z,19.90
2019-06-20T09:16:36.894Z,20.20
2019-06-20T09:19:06.796Z,20.40
2019-06-20T09:21:36.449Z,20.60
2019-06-20T09:24:05.310Z,20.70
2019-06-20T09:26:33.937Z,20.80
2019-06-20T09:29:04.079Z,20.70
2019-06-20T09:31:32.860Z,20.70
2019-06-20T09:34:04.887Z,20.60
2019-06-20T09:36:32.154Z,20.50
2019-06-20T09:39:00.795Z,20.20
2019-06-20T09:41:29.513Z,20.00
2019-06-20T09:43:58.563Z,20.00
2019-06-20T09:46:27.441Z,19.90
2019-06-20T09:48:56.065Z,19.90
2019-06-20T09:51:24.998Z,20.00
2019-06-20T09:53:53.909Z,20.10
2019-06-20T09:56:22.691Z,20.30
2019-06-20T09:58:51.290Z,20.40
2019-06-20T10:01:19.972Z,20.60
2019-06-20T10:03:50.551Z,20.70
2019-06-20T10:06:19.193Z,20.70
2019-06-20T10:08:48.272Z,20.80
2019-06-20T10:11:16.965Z,21.00
2019-06-20T10:13:46.846Z,21.10
2019-06-20T10:16:16.119Z,21.10
2019-06-20T10:18:46.752Z,21.20
2019-06-20T10:21:14.995Z,21.40
2019-06-20T10:23:43.584Z,21.60
2019-06-20T10:26:12.215Z,21.90
2019-06-20T10:28:40.860Z,22.00
2019-06-20T10:31:09.393Z,22.10
2019-06-20T10:33:38.041Z,22.30
2019-06-20T10:36:07.546Z,22.50
2019-06-20T10:38:36.141Z,22.70
2019-06-20T10:41:04.841Z,22.80
2019-06-20T10:43:33.469Z,23.00
2019-06-20T10:46:02.110Z,22.90
2019-06-20T10:48:30.842Z,22.80
2019-06-20T10:51:18.020Z,22.70
2019-06-20T10:53:47.127Z,22.70
2019-06-20T10:56:16.358Z,22.80
2019-06-20T10:58:46.338Z,22.90
2019-06-20T11:01:14.998Z,23.00
2019-06-20T11:03:43.621Z,23.30
2019-06-20T11:06:12.568Z,23.50
2019-06-20T11:08:41.803Z,23.80
2019-06-20T11:11:13.481Z,23.90
2019-06-20T11:13:42.232Z,24.00
2019-06-20T11:16:10.820Z,24.00
2019-06-20T11:18:40.025Z,23.90
2019-06-20T11:21:09.529Z,23.80
2019-06-20T11:23:39.339Z,23.70
2019-06-20T11:26:08.007Z,23.60
2019-06-20T11:28:37.680Z,23.80
2019-06-20T11:31:06.838Z,23.80
2019-06-20T11:33:36.736Z,24.00
2019-06-20T11:36:05.936Z,23.90
2019-06-20T11:38:34.919Z,23.80
2019-06-20T11:41:03.605Z,23.80
2019-06-20T11:43:34.645Z,23.60
2019-06-20T11:46:02.865Z,23.60
2019-06-20T11:48:31.490Z,23.80
2019-06-20T11:51:00.106Z,23.90
2019-06-20T11:53:28.769Z,24.00
2019-06-20T11:55:57.399Z,24.10
2019-06-20T11:58:25.985Z,24.20
2019-06-20T12:01:03.521Z,24.10
2019-06-20T12:03:25.582Z,24.00
2019-06-20T12:05:54.206Z,23.80
2019-06-20T12:08:22.839Z,23.70
2019-06-20T12:10:51.425Z,23.60
2019-06-20T12:13:20.030Z,23.40
2019-06-20T12:15:49.013Z,23.20
2019-06-20T12:18:17.637Z,23.00
2019-06-20T12:20:46.822Z,22.90
2019-06-20T12:23:15.456Z,22.80
2019-06-20T12:25:44.261Z,23.00
2019-06-20T12:28:13.041Z,23.10
2019-06-20T12:30:41.665Z,23.40
2019-06-20T12:33:10.401Z,23.60
2019-06-20T12:35:41.322Z,23.70
2019-06-20T12:38:10.201Z,23.70
2019-06-20T12:40:40.842Z,23.80
2019-06-20T12:43:10.112Z,24.00
2019-06-20T12:45:41.313Z,23.70
2019-06-20T12:48:10.272Z,23.50
2019-06-20T12:50:40.154Z,23.50
2019-06-20T12:53:10.361Z,23.40
2019-06-20T12:55:40.342Z,23.40
2019-06-20T12:58:09.155Z,23.50
2019-06-20T13:00:39.578Z,23.40
2019-06-20T13:03:08.518Z,23.30
2019-06-20T13:05:38.461Z,23.30
2019-06-20T13:08:07.985Z,23.10
2019-06-20T13:10:38.687Z,23.00
2019-06-20T13:13:07.677Z,22.90
2019-06-20T13:15:36.297Z,22.80
2019-06-20T13:18:05.140Z,22.90
2019-06-20T13:20:34.182Z,22.90
2019-06-20T13:23:02.838Z,23.00
2019-06-20T13:25:31.736Z,23.20
2019-06-20T13:28:01.478Z,23.40
2019-06-20T13:30:30.173Z,23.60
2019-06-20T13:32:59.127Z,23.70
2019-06-20T13:35:27.830Z,23.80
2019-06-20T13:37:56.568Z,24.00
2019-06-20T13:40:25.482Z,24.10
2019-06-20T13:42:54.842Z,24.20
2019-06-20T13:45:27.225Z,24.30
2019-06-20T13:47:56.090Z,24.40
2019-06-20T13:50:26.031Z,24.20
2019-06-20T13:52:55.282Z,24.40
2019-06-20T13:55:23.978Z,24.50
2019-06-20T13:57:52.574Z,24.60
2019-06-20T14:00:23.827Z,24.70
2019-06-20T14:02:53.294Z,24.80
2019-06-20T14:05:21.992Z,24.80
2019-06-20T14:07:53.603Z,24.70
2019-06-20T14:10:21.351Z,24.50
2019-06-20T14:12:50.006Z,24.50
2019-06-20T14:15:21.017Z,24.40
2019-06-20T14:17:49.961Z,24.30
2019-06-20T14:20:19.355Z,24.30
2019-06-20T14:22:49.369Z,24.30
2019-06-20T14:25:19.044Z,24.30
2019-06-20T14:27:49.046Z,24.40
2019-06-20T14:30:19.474Z,24.30
2019-06-20T14:32:49.445Z,24.40
2019-06-20T14:35:19.171Z,24.50
2019-06-20T14:37:49.564Z,24.70
2019-06-20T14:40:19.349Z,24.70
2019-06-20T14:42:48.455Z,24.70
2019-06-20T14:45:20.308Z,24.60
2019-06-20T14:47:49.103Z,24.70
2019-06-20T14:50:18.141Z,24.80
2019-06-20T14:52:49.619Z,24.90
2019-06-20T14:55:17.690Z,25.10
2019-06-20T14:57:48.400Z,25.10
2019-06-20T15:00:19.110Z,25.00
2019-06-20T15:02:51.922Z,25.10
2019-06-20T15:05:18.995Z,25.10
2019-06-20T15:07:49.426Z,25.10
2019-06-20T15:10:18.237Z,24.80
2019-06-20T15:12:48.322Z,24.40
2019-06-20T15:15:17.406Z,24.20
2019-06-20T15:17:49.046Z,24.10
2019-06-20T15:20:17.597Z,23.90
2019-06-20T15:22:47.483Z,23.80
2019-06-20T15:25:17.901Z,23.70
2019-06-20T15:27:48.112Z,23.60
2019-06-20T15:30:18.598Z,23.50
2019-06-20T15:33:00.995Z,23.30
2019-06-20T15:35:18.365Z,23.20
2019-06-20T15:37:48.401Z,23.20
2019-06-20T15:40:18.565Z,23.00
2019-06-20T15:42:49.193Z,22.80
2019-06-20T15:45:17.802Z,22.60
2019-06-20T15:47:46.987Z,22.50
2019-06-20T15:50:16.134Z,22.50
2019-06-20T15:52:44.769Z,22.50
2019-06-20T15:55:13.410Z,22.70
2019-06-20T15:57:41.995Z,22.80
2019-06-20T16:00:12.209Z,22.90
2019-06-20T16:02:40.831Z,22.90
2019-06-20T16:05:10.009Z,23.00
2019-06-20T16:07:39.018Z,23.10
2019-06-20T16:10:11.424Z,23.20
2019-06-20T16:12:40.522Z,23.30
2019-06-20T16:15:10.696Z,23.50
2019-06-20T16:17:39.394Z,23.60
2019-06-20T16:20:09.120Z,23.70
2019-06-20T16:22:37.831Z,23.70
2019-06-20T16:25:08.002Z,23.70
2019-06-20T16:27:36.876Z,23.70
2019-06-20T16:30:09.914Z,23.60
2019-06-20T16:32:38.643Z,23.50
2019-06-20T16:35:07.880Z,23.20
2019-06-20T16:37:36.732Z,23.20
2019-06-20T16:40:08.767Z,23.20
2019-06-20T16:42:37.473Z,23.00
2019-06-20T16:45:10.244Z,22.70
2019-06-20T16:47:39.556Z,22.50
2019-06-20T16:50:08.745Z,22.50
2019-06-20T16:52:37.441Z,22.50
2019-06-20T16:55:07.945Z,22.50
2019-06-20T16:57:36.574Z,22.70
2019-06-20T17:00:09.637Z,22.90
2019-06-20T17:02:38.917Z,23.10
2019-06-20T17:05:09.066Z,23.10
2019-06-20T17:07:37.752Z,22.90
2019-06-20T17:10:08.334Z,22.80
2019-06-20T17:12:36.894Z,22.90
2019-06-20T17:15:07.763Z,22.80
2019-06-20T17:17:36.454Z,22.70
2019-06-20T17:20:08.330Z,22.60
2019-06-20T17:22:37.131Z,22.50
2019-06-20T17:25:06.895Z,22.20
2019-06-20T17:27:35.558Z,22.20
2019-06-20T17:30:07.232Z,22.10
2019-06-20T17:32:35.850Z,22.10
2019-06-20T17:35:06.989Z,22.00
2019-06-20T17:37:35.964Z,22.10
2019-06-20T17:40:11.941Z,22.20
2019-06-20T17:42:40.573Z,22.20
2019-06-20T17:45:10.143Z,22.10
2019-06-20T17:47:39.109Z,22.00
2019-06-20T17:50:12.385Z,21.80
2019-06-20T17:52:41.390Z,21.80
2019-06-20T17:55:12.215Z,21.80
2019-06-20T17:57:41.258Z,21.80
2019-06-20T18:00:12.687Z,21.90
2019-06-20T18:02:41.453Z,22.00
2019-06-20T18:05:10.520Z,21.90
2019-06-20T18:07:39.658Z,21.80
2019-06-20T18:10:09.485Z,21.70
2019-06-20T18:12:38.484Z,21.70
2019-06-20T18:15:09.158Z,21.70
2019-06-20T18:17:37.913Z,21.60
2019-06-20T18:20:07.642Z,21.60
2019-06-20T18:22:36.259Z,21.60
2019-06-20T18:25:09.565Z,21.60
2019-06-20T18:27:39.361Z,21.50
2019-06-20T18:30:12.642Z,21.40
2019-06-20T18:32:41.226Z,21.30
2019-06-20T18:35:10.426Z,21.30
2019-06-20T18:37:39.118Z,21.20
2019-06-20T18:40:10.438Z,21.10
2019-06-20T18:42:40.225Z,21.10
2019-06-20T18:45:09.665Z,21.10
2019-06-20T18:47:38.417Z,21.10
2019-06-20T18:50:07.863Z,21.10
2019-06-20T18:52:51.165Z,21.00
2019-06-20T18:55:09.144Z,20.90
2019-06-20T18:57:38.011Z,20.80
2019-06-20T19:00:09.410Z,20.80
2019-06-20T19:02:38.099Z,20.80
2019-06-20T19:05:07.959Z,20.80
2019-06-20T19:07:36.923Z,20.80
2019-06-20T19:10:10.512Z,20.80
2019-06-20T19:12:39.544Z,20.80
2019-06-20T19:15:13.401Z,20.70
2019-06-20T19:17:42.370Z,20.60
2019-06-20T19:20:11.425Z,20.60
2019-06-20T19:22:40.020Z,20.50
2019-06-20T19:25:09.181Z,20.40
2019-06-20T19:27:46.367Z,20.40
2019-06-20T19:30:09.241Z,20.40
2019-06-20T19:32:38.106Z,20.30
2019-06-20T19:35:10.221Z,20.30
2019-06-20T19:37:37.813Z,20.30
2019-06-20T19:40:07.633Z,20.30
2019-06-20T19:42:36.271Z,20.30
2019-06-20T19:45:11.524Z,20.30
2019-06-20T19:47:40.778Z,20.40
2019-06-20T19:50:10.370Z,20.40
2019-06-20T19:52:39.637Z,20.50
2019-06-20T19:55:11.621Z,20.50
2019-06-20T19:57:40.805Z,20.50
2019-06-20T20:00:11.429Z,20.50
2019-06-20T20:02:40.104Z,20.60
2019-06-20T20:05:19.283Z,20.60
2019-06-20T20:07:40.418Z,20.70
2019-06-20T20:10:10.269Z,20.60
2019-06-20T20:12:38.858Z,20.70
2019-06-20T20:15:08.523Z,20.70
2019-06-20T20:17:37.122Z,20.70
2019-06-20T20:20:07.894Z,20.70
2019-06-20T20:22:36.610Z,20.70
2019-06-20T20:25:07.403Z,20.70
2019-06-20T20:27:35.993Z,20.60
2019-06-20T20:30:07.726Z,20.60
2019-06-20T20:32:36.299Z,20.50
2019-06-20T20:35:05.545Z,20.50
2019-06-20T20:37:34.166Z,20.50
2019-06-20T20:40:02.982Z,20.40
2019-06-20T20:42:31.568Z,20.40
2019-06-20T20:45:00.153Z,20.40
2019-06-20T20:47:29.137Z,20.30
2019-06-20T20:49:57.720Z,20.20
2019-06-20T20:52:26.358Z,20.20
2019-06-20T20:54:55.006Z,20.10
2019-06-20T20:57:23.861Z,20.00
2019-06-20T20:59:52.485Z,19.90
2019-06-20T21:02:21.254Z,19.90
2019-06-20T21:04:49.935Z,19.80
2019-06-20T21:07:18.472Z,19.70
2019-06-20T21:09:47.440Z,19.60
2019-06-20T21:12:15.987Z,19.50
2019-06-20T21:14:44.764Z,19.50
2019-06-20T21:17:13.658Z,19.50
2019-06-20T21:19:42.244Z,19.50
2019-06-20T21:22:10.874Z,19.40
2019-06-20T21:24:39.466Z,19.40
2019-06-20T21:27:08.054Z,19.40
2019-06-20T21:29:37.109Z,19.40
2019-06-20T21:32:05.821Z,19.30
2019-06-20T21:34:34.452Z,19.30
2019-06-20T21:37:03.066Z,19.30
2019-06-20T21:39:31.768Z,19.30
2019-06-20T21:42:01.121Z,19.30
2019-06-20T21:44:29.722Z,19.30
2019-06-20T21:46:58.314Z,19.20
2019-06-20T21:49:26.929Z,19.20
2019-06-20T21:51:56.042Z,19.20
2019-06-20T21:54:24.629Z,19.20
2019-06-20T21:56:53.340Z,19.10
2019-06-20T21:59:21.925Z,19.10
2019-06-20T22:01:50.657Z,19.10
2019-06-20T22:04:19.367Z,19.00
2019-06-20T22:06:47.958Z,19.00
2019-06-20T22:09:16.687Z,19.00
2019-06-20T22:11:45.318Z,18.90
2019-06-20T22:14:13.982Z,18.90
2019-06-20T22:16:42.846Z,18.90
2019-06-20T22:19:11.485Z,18.80
2019-06-20T22:21:40.074Z,18.80
2019-06-20T22:24:08.739Z,18.80
2019-06-20T22:26:37.456Z,18.80
2019-06-20T22:29:06.373Z,18.80
2019-06-20T22:31:35.068Z,18.70
2019-06-20T22:34:03.719Z,18.70
2019-06-20T22:36:40.339Z,18.60
2019-06-20T22:39:03.237Z,18.60
2019-06-20T22:41:32.129Z,18.60
2019-06-20T22:44:01.018Z,18.60
2019-06-20T22:46:29.638Z,18.50
2019-06-20T22:48:58.229Z,18.50
2019-06-20T22:51:26.921Z,18.50
2019-06-20T22:53:55.550Z,18.50
2019-06-20T22:56:24.138Z,18.50
2019-06-20T22:58:52.764Z,18.50
2019-06-20T23:01:21.775Z,18.50
2019-06-20T23:03:50.365Z,18.50
2019-06-20T23:06:18.994Z,18.40
2019-06-20T23:08:48.010Z,18.30
2019-06-20T23:11:16.874Z,18.30
2019-06-20T23:13:45.461Z,18.30
2019-06-20T23:16:14.081Z,18.20
2019-06-20T23:18:42.705Z,18.20
2019-06-20T23:21:11.387Z,18.20
2019-06-20T23:23:39.993Z,18.20
2019-06-20T23:26:10.223Z,18.10
2019-06-20T23:28:38.873Z,18.10
2019-06-20T23:31:07.423Z,18.10
2019-06-20T23:33:36.015Z,18.00
2019-06-20T23:36:04.708Z,18.00
2019-06-20T23:38:33.613Z,18.00
2019-06-20T23:41:02.207Z,18.00
2019-06-20T23:43:30.807Z,17.90
2019-06-20T23:45:59.408Z,17.90
2019-06-20T23:48:28.032Z,17.90
2019-06-20T23:50:57.875Z,17.90
2019-06-20T23:53:28.274Z,17.80
2019-06-20T23:55:57.853Z,17.80
2019-06-20T23:58:26.441Z,17.80
